sensor_id;sensor_type;location;lat;lon;timestamp;P1;durP1;ratioP1;P2;durP2;ratioP2
15258;SDS011;34462;51.368;12.364;2023-02-18T00:01:40;3.80;;;1.50;;
15258;SDS011;34462;51.368;12.364;2023-02-18T00:04:10;2.23;;;1.47;;
15258;SDS011;34462;51.368;12.364;2023-02-18T00:06:38;2.60;;;1.40;;
15258;SDS011;34462;51.368;12.364;2023-02-18T00:09:06;3.17;;;1.77;;
15258;SDS011;34462;51.368;12.364;2023-02-18T00:11:35;5.37;;;1.63;;
15258;SDS011;34462;51.368;12.364;2023-02-18T00:14:09;4.87;;;1.70;;
15258;SDS011;34462;51.368;12.364;2023-02-18T00:16:41;3.00;;;1.40;;
15258;SDS011;34462;51.368;12.364;2023-02-18T00:19:12;5.03;;;2.13;;
15258;SDS011;34462;51.368;12.364;2023-02-18T00:21:44;3.20;;;1.50;;
15258;SDS011;34462;51.368;12.364;2023-02-18T00:24:13;3.43;;;1.70;;
15258;SDS011;34462;51.368;12.364;2023-02-18T00:26:43;3.60;;;1.77;;
15258;SDS011;34462;51.368;12.364;2023-02-18T00:29:11;5.97;;;1.93;;
15258;SDS011;34462;51.368;12.364;2023-02-18T00:31:40;3.30;;;1.87;;
15258;SDS011;34462;51.368;12.364;2023-02-18T00:34:09;2.57;;;1.60;;
15258;SDS011;34462;51.368;12.364;2023-02-18T00:36:40;5.60;;;2.40;;
15258;SDS011;34462;51.368;12.364;2023-02-18T00:39:09;6.67;;;2.30;;
15258;SDS011;34462;51.368;12.364;2023-02-18T00:41:38;5.37;;;1.90;;
15258;SDS011;34462;51.368;12.364;2023-02-18T00:44:07;2.63;;;1.30;;
15258;SDS011;34462;51.368;12.364;2023-02-18T00:46:36;5.07;;;1.80;;
15258;SDS011;34462;51.368;12.364;2023-02-18T00:49:05;3.40;;;1.60;;
15258;SDS011;34462;51.368;12.364;2023-02-18T00:51:35;4.07;;;1.30;;
15258;SDS011;34462;51.368;12.364;2023-02-18T00:54:04;3.93;;;1.77;;
15258;SDS011;34462;51.368;12.364;2023-02-18T00:56:32;3.70;;;1.50;;
15258;SDS011;34462;51.368;12.364;2023-02-18T00:59:01;3.40;;;1.20;;
15258;SDS011;34462;51.368;12.364;2023-02-18T01:01:29;2.90;;;1.37;;
15258;SDS011;34462;51.368;12.364;2023-02-18T01:03:57;3.30;;;1.57;;
15258;SDS011;34462;51.368;12.364;2023-02-18T01:06:26;6.07;;;1.90;;
15258;SDS011;34462;51.368;12.364;2023-02-18T01:08:55;3.13;;;1.20;;
15258;SDS011;34462;51.368;12.364;2023-02-18T01:11:23;2.30;;;1.37;;
15258;SDS011;34462;51.368;12.364;2023-02-18T01:13:51;4.40;;;1.50;;
15258;SDS011;34462;51.368;12.364;2023-02-18T01:16:20;3.70;;;1.30;;
15258;SDS011;34462;51.368;12.364;2023-02-18T01:18:48;3.70;;;1.20;;
15258;SDS011;34462;51.368;12.364;2023-02-18T01:21:17;3.90;;;1.93;;
15258;SDS011;34462;51.368;12.364;2023-02-18T01:23:45;6.13;;;1.93;;
15258;SDS011;34462;51.368;12.364;2023-02-18T01:26:14;6.03;;;1.43;;
15258;SDS011;34462;51.368;12.364;2023-02-18T01:28:43;2.20;;;1.20;;
15258;SDS011;34462;51.368;12.364;2023-02-18T01:31:11;3.17;;;1.40;;
15258;SDS011;34462;51.368;12.364;2023-02-18T01:33:40;3.57;;;1.37;;
15258;SDS011;34462;51.368;12.364;2023-02-18T01:36:10;5.10;;;1.23;;
15258;SDS011;34462;51.368;12.364;2023-02-18T01:38:38;4.40;;;1.67;;
15258;SDS011;34462;51.368;12.364;2023-02-18T01:41:07;7.50;;;1.60;;
15258;SDS011;34462;51.368;12.364;2023-02-18T01:43:37;3.10;;;1.30;;
15258;SDS011;34462;51.368;12.364;2023-02-18T01:46:13;4.73;;;1.50;;
15258;SDS011;34462;51.368;12.364;2023-02-18T01:48:46;7.50;;;1.50;;
15258;SDS011;34462;51.368;12.364;2023-02-18T01:51:21;4.53;;;1.20;;
15258;SDS011;34462;51.368;12.364;2023-02-18T01:53:55;4.93;;;1.63;;
15258;SDS011;34462;51.368;12.364;2023-02-18T01:56:28;4.07;;;1.43;;
15258;SDS011;34462;51.368;12.364;2023-02-18T01:59:10;4.07;;;1.37;;
15258;SDS011;34462;51.368;12.364;2023-02-18T02:01:43;6.23;;;1.43;;
15258;SDS011;34462;51.368;12.364;2023-02-18T02:04:12;4.40;;;1.33;;
15258;SDS011;34462;51.368;12.364;2023-02-18T02:06:41;4.10;;;1.47;;
15258;SDS011;34462;51.368;12.364;2023-02-18T02:09:09;3.10;;;1.50;;
15258;SDS011;34462;51.368;12.364;2023-02-18T02:11:47;3.87;;;1.40;;
15258;SDS011;34462;51.368;12.364;2023-02-18T02:14:53;5.03;;;1.50;;
15258;SDS011;34462;51.368;12.364;2023-02-18T02:17:36;4.63;;;1.53;;
15258;SDS011;34462;51.368;12.364;2023-02-18T02:20:34;3.73;;;1.40;;
15258;SDS011;34462;51.368;12.364;2023-02-18T02:27:14;5.10;;;1.50;;
15258;SDS011;34462;51.368;12.364;2023-02-18T02:29:59;4.80;;;1.90;;
15258;SDS011;34462;51.368;12.364;2023-02-18T02:33:23;3.07;;;1.47;;
15258;SDS011;34462;51.368;12.364;2023-02-18T02:36:18;4.07;;;1.77;;
15258;SDS011;34462;51.368;12.364;2023-02-18T02:38:55;4.40;;;1.70;;
15258;SDS011;34462;51.368;12.364;2023-02-18T02:41:38;5.67;;;1.97;;
15258;SDS011;34462;51.368;12.364;2023-02-18T02:44:18;5.20;;;1.60;;
15258;SDS011;34462;51.368;12.364;2023-02-18T02:46:51;5.03;;;1.70;;
15258;SDS011;34462;51.368;12.364;2023-02-18T02:49:32;4.07;;;1.37;;
15258;SDS011;34462;51.368;12.364;2023-02-18T02:52:08;5.87;;;1.87;;
15258;SDS011;34462;51.368;12.364;2023-02-18T02:54:41;5.37;;;2.50;;
15258;SDS011;34462;51.368;12.364;2023-02-18T03:00:20;7.70;;;1.87;;
15258;SDS011;34462;51.368;12.364;2023-02-18T03:03:14;5.17;;;1.93;;
15258;SDS011;34462;51.368;12.364;2023-02-18T03:06:10;5.70;;;2.10;;
15258;SDS011;34462;51.368;12.364;2023-02-18T03:09:01;4.77;;;1.80;;
15258;SDS011;34462;51.368;12.364;2023-02-18T03:11:43;6.70;;;1.90;;
15258;SDS011;34462;51.368;12.364;2023-02-18T03:14:26;3.43;;;1.60;;
15258;SDS011;34462;51.368;12.364;2023-02-18T03:17:00;5.23;;;1.60;;
15258;SDS011;34462;51.368;12.364;2023-02-18T03:19:38;4.77;;;1.83;;
15258;SDS011;34462;51.368;12.364;2023-02-18T03:22:15;3.90;;;1.73;;
15258;SDS011;34462;51.368;12.364;2023-02-18T03:24:51;3.83;;;2.00;;
15258;SDS011;34462;51.368;12.364;2023-02-18T03:27:24;2.97;;;1.70;;
15258;SDS011;34462;51.368;12.364;2023-02-18T03:29:59;4.23;;;2.00;;
15258;SDS011;34462;51.368;12.364;2023-02-18T03:32:34;6.83;;;2.93;;
15258;SDS011;34462;51.368;12.364;2023-02-18T03:35:06;7.67;;;2.20;;
15258;SDS011;34462;51.368;12.364;2023-02-18T03:37:41;7.40;;;2.63;;
15258;SDS011;34462;51.368;12.364;2023-02-18T03:40:18;2.90;;;1.97;;
15258;SDS011;34462;51.368;12.364;2023-02-18T03:42:46;3.87;;;2.30;;
15258;SDS011;34462;51.368;12.364;2023-02-18T03:45:15;3.87;;;2.10;;
15258;SDS011;34462;51.368;12.364;2023-02-18T03:47:43;5.83;;;2.20;;
15258;SDS011;34462;51.368;12.364;2023-02-18T03:50:11;6.97;;;2.17;;
15258;SDS011;34462;51.368;12.364;2023-02-18T03:52:39;5.47;;;1.80;;
15258;SDS011;34462;51.368;12.364;2023-02-18T03:55:08;5.83;;;2.37;;
15258;SDS011;34462;51.368;12.364;2023-02-18T03:57:37;8.67;;;2.33;;
15258;SDS011;34462;51.368;12.364;2023-02-18T04:00:07;6.37;;;2.10;;
15258;SDS011;34462;51.368;12.364;2023-02-18T04:02:37;6.40;;;1.87;;
15258;SDS011;34462;51.368;12.364;2023-02-18T04:05:05;8.83;;;2.10;;
15258;SDS011;34462;51.368;12.364;2023-02-18T04:07:34;9.77;;;2.50;;
15258;SDS011;34462;51.368;12.364;2023-02-18T04:10:04;7.33;;;2.07;;
15258;SDS011;34462;51.368;12.364;2023-02-18T04:12:33;6.87;;;1.90;;
15258;SDS011;34462;51.368;12.364;2023-02-18T04:15:03;5.40;;;1.80;;
15258;SDS011;34462;51.368;12.364;2023-02-18T04:17:32;8.03;;;1.60;;
15258;SDS011;34462;51.368;12.364;2023-02-18T04:20:01;5.80;;;1.80;;
15258;SDS011;34462;51.368;12.364;2023-02-18T04:22:30;6.30;;;1.83;;
15258;SDS011;34462;51.368;12.364;2023-02-18T04:24:58;5.13;;;1.73;;
15258;SDS011;34462;51.368;12.364;2023-02-18T04:27:26;5.57;;;1.90;;
15258;SDS011;34462;51.368;12.364;2023-02-18T04:29:55;5.97;;;2.27;;
15258;SDS011;34462;51.368;12.364;2023-02-18T04:32:24;7.07;;;2.20;;
15258;SDS011;34462;51.368;12.364;2023-02-18T04:34:52;6.73;;;2.03;;
15258;SDS011;34462;51.368;12.364;2023-02-18T04:37:20;7.90;;;2.20;;
15258;SDS011;34462;51.368;12.364;2023-02-18T04:39:49;6.27;;;2.33;;
15258;SDS011;34462;51.368;12.364;2023-02-18T04:42:17;8.27;;;2.53;;
15258;SDS011;34462;51.368;12.364;2023-02-18T04:44:45;7.77;;;2.83;;
15258;SDS011;34462;51.368;12.364;2023-02-18T04:47:13;7.37;;;3.40;;
15258;SDS011;34462;51.368;12.364;2023-02-18T04:49:43;12.57;;;3.17;;
15258;SDS011;34462;51.368;12.364;2023-02-18T04:52:11;8.37;;;3.33;;
15258;SDS011;34462;51.368;12.364;2023-02-18T04:54:39;6.87;;;4.00;;
15258;SDS011;34462;51.368;12.364;2023-02-18T04:57:07;9.90;;;4.10;;
15258;SDS011;34462;51.368;12.364;2023-02-18T04:59:36;10.03;;;4.50;;
15258;SDS011;34462;51.368;12.364;2023-02-18T05:02:04;11.60;;;4.63;;
15258;SDS011;34462;51.368;12.364;2023-02-18T05:04:32;9.03;;;4.80;;
15258;SDS011;34462;51.368;12.364;2023-02-18T05:07:02;11.10;;;5.30;;
15258;SDS011;34462;51.368;12.364;2023-02-18T05:09:30;13.10;;;5.43;;
15258;SDS011;34462;51.368;12.364;2023-02-18T05:11:59;8.70;;;5.10;;
15258;SDS011;34462;51.368;12.364;2023-02-18T05:14:27;9.13;;;5.50;;
15258;SDS011;34462;51.368;12.364;2023-02-18T05:16:55;13.37;;;5.33;;
15258;SDS011;34462;51.368;12.364;2023-02-18T05:19:23;11.73;;;6.00;;
15258;SDS011;34462;51.368;12.364;2023-02-18T05:21:51;11.87;;;5.50;;
15258;SDS011;34462;51.368;12.364;2023-02-18T05:24:21;9.13;;;5.60;;
15258;SDS011;34462;51.368;12.364;2023-02-18T05:26:49;10.43;;;5.77;;
15258;SDS011;34462;51.368;12.364;2023-02-18T05:29:17;9.30;;;5.03;;
15258;SDS011;34462;51.368;12.364;2023-02-18T05:31:45;6.10;;;4.77;;
15258;SDS011;34462;51.368;12.364;2023-02-18T05:34:14;9.00;;;5.03;;
15258;SDS011;34462;51.368;12.364;2023-02-18T05:36:42;7.27;;;5.37;;
15258;SDS011;34462;51.368;12.364;2023-02-18T05:39:10;8.50;;;5.57;;
15258;SDS011;34462;51.368;12.364;2023-02-18T05:41:39;10.30;;;5.17;;
15258;SDS011;34462;51.368;12.364;2023-02-18T05:44:07;7.20;;;5.20;;
15258;SDS011;34462;51.368;12.364;2023-02-18T05:46:53;13.67;;;6.80;;
15258;SDS011;34462;51.368;12.364;2023-02-18T05:49:21;10.10;;;6.60;;
15258;SDS011;34462;51.368;12.364;2023-02-18T05:51:49;10.43;;;6.53;;
15258;SDS011;34462;51.368;12.364;2023-02-18T05:54:17;10.50;;;6.77;;
15258;SDS011;34462;51.368;12.364;2023-02-18T05:56:47;10.30;;;6.93;;
15258;SDS011;34462;51.368;12.364;2023-02-18T05:59:15;9.60;;;7.07;;
15258;SDS011;34462;51.368;12.364;2023-02-18T06:01:44;12.20;;;7.97;;
15258;SDS011;34462;51.368;12.364;2023-02-18T06:04:13;12.23;;;7.60;;
15258;SDS011;34462;51.368;12.364;2023-02-18T06:06:41;10.77;;;7.73;;
15258;SDS011;34462;51.368;12.364;2023-02-18T06:09:10;10.57;;;8.00;;
15258;SDS011;34462;51.368;12.364;2023-02-18T06:11:39;11.73;;;7.97;;
15258;SDS011;34462;51.368;12.364;2023-02-18T06:14:08;13.73;;;8.83;;
15258;SDS011;34462;51.368;12.364;2023-02-18T06:16:36;14.37;;;9.87;;
15258;SDS011;34462;51.368;12.364;2023-02-18T06:19:05;13.93;;;9.53;;
15258;SDS011;34462;51.368;12.364;2023-02-18T06:21:33;14.67;;;9.37;;
15258;SDS011;34462;51.368;12.364;2023-02-18T06:24:01;14.63;;;9.80;;
15258;SDS011;34462;51.368;12.364;2023-02-18T06:26:30;13.80;;;9.33;;
15258;SDS011;34462;51.368;12.364;2023-02-18T06:28:59;13.17;;;9.37;;
15258;SDS011;34462;51.368;12.364;2023-02-18T06:31:28;15.53;;;10.50;;
15258;SDS011;34462;51.368;12.364;2023-02-18T06:33:57;15.97;;;9.67;;
15258;SDS011;34462;51.368;12.364;2023-02-18T06:36:25;12.17;;;8.97;;
15258;SDS011;34462;51.368;12.364;2023-02-18T06:38:53;15.20;;;9.53;;
15258;SDS011;34462;51.368;12.364;2023-02-18T06:41:22;13.77;;;9.60;;
15258;SDS011;34462;51.368;12.364;2023-02-18T06:43:50;14.10;;;10.03;;
15258;SDS011;34462;51.368;12.364;2023-02-18T06:46:18;13.80;;;9.20;;
15258;SDS011;34462;51.368;12.364;2023-02-18T06:48:48;14.77;;;10.23;;
15258;SDS011;34462;51.368;12.364;2023-02-18T06:51:16;14.77;;;10.10;;
15258;SDS011;34462;51.368;12.364;2023-02-18T06:53:44;15.73;;;10.27;;
15258;SDS011;34462;51.368;12.364;2023-02-18T06:56:13;16.00;;;10.57;;
15258;SDS011;34462;51.368;12.364;2023-02-18T06:58:41;15.37;;;10.27;;
15258;SDS011;34462;51.368;12.364;2023-02-18T07:01:09;16.17;;;10.70;;
15258;SDS011;34462;51.368;12.364;2023-02-18T07:03:37;16.33;;;10.20;;
15258;SDS011;34462;51.368;12.364;2023-02-18T07:06:07;15.87;;;10.30;;
15258;SDS011;34462;51.368;12.364;2023-02-18T07:08:36;15.80;;;10.47;;
15258;SDS011;34462;51.368;12.364;2023-02-18T07:11:04;17.10;;;10.20;;
15258;SDS011;34462;51.368;12.364;2023-02-18T07:13:33;19.10;;;11.80;;
15258;SDS011;34462;51.368;12.364;2023-02-18T07:16:01;17.70;;;11.30;;
15258;SDS011;34462;51.368;12.364;2023-02-18T07:18:30;18.60;;;11.67;;
15258;SDS011;34462;51.368;12.364;2023-02-18T07:20:58;18.37;;;11.63;;
15258;SDS011;34462;51.368;12.364;2023-02-18T07:23:27;19.23;;;12.10;;
15258;SDS011;34462;51.368;12.364;2023-02-18T07:26:01;19.33;;;12.63;;
15258;SDS011;34462;51.368;12.364;2023-02-18T07:28:33;18.47;;;12.17;;
15258;SDS011;34462;51.368;12.364;2023-02-18T07:31:02;18.73;;;12.13;;
15258;SDS011;34462;51.368;12.364;2023-02-18T07:33:31;15.53;;;10.70;;
15258;SDS011;34462;51.368;12.364;2023-02-18T07:35:59;14.73;;;10.23;;
15258;SDS011;34462;51.368;12.364;2023-02-18T07:38:30;14.53;;;9.90;;
15258;SDS011;34462;51.368;12.364;2023-02-18T07:40:58;13.90;;;9.50;;
15258;SDS011;34462;51.368;12.364;2023-02-18T07:43:27;14.20;;;9.67;;
15258;SDS011;34462;51.368;12.364;2023-02-18T07:45:55;12.53;;;8.90;;
15258;SDS011;34462;51.368;12.364;2023-02-18T07:48:23;14.10;;;9.20;;
15258;SDS011;34462;51.368;12.364;2023-02-18T07:50:53;14.20;;;8.50;;
15258;SDS011;34462;51.368;12.364;2023-02-18T07:53:21;12.83;;;7.57;;
15258;SDS011;34462;51.368;12.364;2023-02-18T07:55:51;9.83;;;7.40;;
15258;SDS011;34462;51.368;12.364;2023-02-18T07:58:20;11.07;;;7.40;;
15258;SDS011;34462;51.368;12.364;2023-02-18T08:00:50;9.77;;;7.07;;
15258;SDS011;34462;51.368;12.364;2023-02-18T08:03:20;9.43;;;7.23;;
15258;SDS011;34462;51.368;12.364;2023-02-18T08:05:51;10.23;;;7.20;;
15258;SDS011;34462;51.368;12.364;2023-02-18T08:08:20;10.33;;;6.43;;
15258;SDS011;34462;51.368;12.364;2023-02-18T08:10:55;7.60;;;6.33;;
15258;SDS011;34462;51.368;12.364;2023-02-18T08:13:38;9.30;;;6.93;;
15258;SDS011;34462;51.368;12.364;2023-02-18T08:16:07;6.80;;;6.10;;
15258;SDS011;34462;51.368;12.364;2023-02-18T08:18:36;7.00;;;5.20;;
15258;SDS011;34462;51.368;12.364;2023-02-18T08:21:05;7.20;;;4.80;;
15258;SDS011;34462;51.368;12.364;2023-02-18T08:23:33;4.97;;;4.40;;
15258;SDS011;34462;51.368;12.364;2023-02-18T08:26:02;4.90;;;4.37;;
15258;SDS011;34462;51.368;12.364;2023-02-18T08:28:31;5.07;;;4.13;;
15258;SDS011;34462;51.368;12.364;2023-02-18T08:31:00;5.10;;;4.40;;
15258;SDS011;34462;51.368;12.364;2023-02-18T08:33:28;4.47;;;4.00;;
15258;SDS011;34462;51.368;12.364;2023-02-18T08:35:57;6.77;;;5.37;;
15258;SDS011;34462;51.368;12.364;2023-02-18T08:38:25;4.47;;;3.63;;
15258;SDS011;34462;51.368;12.364;2023-02-18T08:41:00;4.23;;;3.10;;
15258;SDS011;34462;51.368;12.364;2023-02-18T08:43:32;3.20;;;2.67;;
15258;SDS011;34462;51.368;12.364;2023-02-18T08:46:00;3.37;;;2.70;;
15258;SDS011;34462;51.368;12.364;2023-02-18T08:48:31;2.70;;;2.50;;
15258;SDS011;34462;51.368;12.364;2023-02-18T08:50:59;3.93;;;2.50;;
15258;SDS011;34462;51.368;12.364;2023-02-18T08:53:38;2.40;;;2.17;;
15258;SDS011;34462;51.368;12.364;2023-02-18T08:56:08;2.63;;;1.80;;
15258;SDS011;34462;51.368;12.364;2023-02-18T08:58:38;2.07;;;1.80;;
15258;SDS011;34462;51.368;12.364;2023-02-18T09:01:08;2.03;;;1.70;;
15258;SDS011;34462;51.368;12.364;2023-02-18T09:03:39;3.47;;;2.30;;
15258;SDS011;34462;51.368;12.364;2023-02-18T09:06:07;4.63;;;3.30;;
15258;SDS011;34462;51.368;12.364;2023-02-18T09:08:35;3.87;;;1.77;;
15258;SDS011;34462;51.368;12.364;2023-02-18T09:11:04;3.47;;;1.80;;
15258;SDS011;34462;51.368;12.364;2023-02-18T09:13:34;2.90;;;1.40;;
15258;SDS011;34462;51.368;12.364;2023-02-18T09:16:04;2.67;;;1.37;;
15258;SDS011;34462;51.368;12.364;2023-02-18T09:18:37;1.60;;;1.20;;
15258;SDS011;34462;51.368;12.364;2023-02-18T09:21:06;1.23;;;1.03;;
15258;SDS011;34462;51.368;12.364;2023-02-18T09:23:36;1.20;;;1.10;;
15258;SDS011;34462;51.368;12.364;2023-02-18T09:26:05;1.20;;;1.10;;
15258;SDS011;34462;51.368;12.364;2023-02-18T09:28:36;1.47;;;1.37;;
15258;SDS011;34462;51.368;12.364;2023-02-18T09:31:05;1.87;;;1.67;;
15258;SDS011;34462;51.368;12.364;2023-02-18T09:33:38;1.20;;;1.10;;
15258;SDS011;34462;51.368;12.364;2023-02-18T09:36:11;1.40;;;1.30;;
15258;SDS011;34462;51.368;12.364;2023-02-18T09:38:39;1.03;;;0.93;;
15258;SDS011;34462;51.368;12.364;2023-02-18T09:41:08;0.83;;;0.80;;
15258;SDS011;34462;51.368;12.364;2023-02-18T09:43:52;1.87;;;1.03;;
15258;SDS011;34462;51.368;12.364;2023-02-18T09:46:26;0.97;;;0.80;;
15258;SDS011;34462;51.368;12.364;2023-02-18T09:49:01;1.00;;;0.90;;
15258;SDS011;34462;51.368;12.364;2023-02-18T09:51:33;1.20;;;0.77;;
15258;SDS011;34462;51.368;12.364;2023-02-18T09:54:01;1.03;;;0.93;;
15258;SDS011;34462;51.368;12.364;2023-02-18T09:56:32;1.27;;;1.10;;
15258;SDS011;34462;51.368;12.364;2023-02-18T09:59:10;1.20;;;1.00;;
15258;SDS011;34462;51.368;12.364;2023-02-18T10:01:44;0.83;;;0.70;;
15258;SDS011;34462;51.368;12.364;2023-02-18T10:04:18;1.03;;;0.80;;
15258;SDS011;34462;51.368;12.364;2023-02-18T10:06:51;0.70;;;0.60;;
15258;SDS011;34462;51.368;12.364;2023-02-18T10:09:21;0.60;;;0.60;;
15258;SDS011;34462;51.368;12.364;2023-02-18T10:11:56;0.90;;;0.43;;
15258;SDS011;34462;51.368;12.364;2023-02-18T10:14:32;0.63;;;0.50;;
15258;SDS011;34462;51.368;12.364;2023-02-18T10:17:01;0.50;;;0.50;;
15258;SDS011;34462;51.368;12.364;2023-02-18T10:19:32;1.53;;;0.70;;
15258;SDS011;34462;51.368;12.364;2023-02-18T10:22:06;0.80;;;0.80;;
15258;SDS011;34462;51.368;12.364;2023-02-18T10:24:41;1.67;;;1.57;;
15258;SDS011;34462;51.368;12.364;2023-02-18T10:27:15;0.80;;;0.80;;
15258;SDS011;34462;51.368;12.364;2023-02-18T10:29:52;0.70;;;0.60;;
15258;SDS011;34462;51.368;12.364;2023-02-18T10:32:23;0.40;;;0.40;;
15258;SDS011;34462;51.368;12.364;2023-02-18T10:34:59;0.60;;;0.60;;
15258;SDS011;34462;51.368;12.364;2023-02-18T10:37:45;0.50;;;0.50;;
15258;SDS011;34462;51.368;12.364;2023-02-18T10:40:30;1.50;;;0.60;;
15258;SDS011;34462;51.368;12.364;2023-02-18T10:43:16;0.33;;;0.33;;
15258;SDS011;34462;51.368;12.364;2023-02-18T10:45:59;0.47;;;0.47;;
15258;SDS011;34462;51.368;12.364;2023-02-18T10:48:51;0.30;;;0.30;;
15258;SDS011;34462;51.368;12.364;2023-02-18T10:51:49;0.47;;;0.40;;
15258;SDS011;34462;51.368;12.364;2023-02-18T10:54:23;0.40;;;0.40;;
15258;SDS011;34462;51.368;12.364;2023-02-18T10:56:57;0.40;;;0.40;;
15258;SDS011;34462;51.368;12.364;2023-02-18T10:59:30;0.50;;;0.50;;
15258;SDS011;34462;51.368;12.364;2023-02-18T11:02:01;0.50;;;0.40;;
15258;SDS011;34462;51.368;12.364;2023-02-18T11:04:43;2.38;;;0.70;;
15258;SDS011;34462;51.368;12.364;2023-02-18T11:07:13;0.50;;;0.50;;
15258;SDS011;34462;51.368;12.364;2023-02-18T11:09:48;0.40;;;0.40;;
15258;SDS011;34462;51.368;12.364;2023-02-18T11:12:21;0.40;;;0.40;;
15258;SDS011;34462;51.368;12.364;2023-02-18T11:15:02;0.50;;;0.50;;
15258;SDS011;34462;51.368;12.364;2023-02-18T11:17:44;0.50;;;0.50;;
15258;SDS011;34462;51.368;12.364;2023-02-18T11:20:22;0.40;;;0.40;;
15258;SDS011;34462;51.368;12.364;2023-02-18T11:22:57;0.40;;;0.40;;
15258;SDS011;34462;51.368;12.364;2023-02-18T11:25:51;0.77;;;0.77;;
15258;SDS011;34462;51.368;12.364;2023-02-18T11:28:36;0.80;;;0.60;;
15258;SDS011;34462;51.368;12.364;2023-02-18T11:31:15;0.90;;;0.50;;
15258;SDS011;34462;51.368;12.364;2023-02-18T11:33:50;0.50;;;0.40;;
15258;SDS011;34462;51.368;12.364;2023-02-18T11:36:24;1.10;;;0.40;;
15258;SDS011;34462;51.368;12.364;2023-02-18T11:38:56;0.70;;;0.50;;
15258;SDS011;34462;51.368;12.364;2023-02-18T11:41:31;0.70;;;0.50;;
15258;SDS011;34462;51.368;12.364;2023-02-18T11:44:04;0.50;;;0.50;;
15258;SDS011;34462;51.368;12.364;2023-02-18T11:46:55;0.40;;;0.40;;
15258;SDS011;34462;51.368;12.364;2023-02-18T11:49:28;0.60;;;0.60;;
15258;SDS011;34462;51.368;12.364;2023-02-18T11:52:02;0.50;;;0.50;;
15258;SDS011;34462;51.368;12.364;2023-02-18T11:54:45;0.50;;;0.50;;
15258;SDS011;34462;51.368;12.364;2023-02-18T11:57:29;0.53;;;0.53;;
15258;SDS011;34462;51.368;12.364;2023-02-18T12:00:00;0.80;;;0.50;;
15258;SDS011;34462;51.368;12.364;2023-02-18T12:02:33;1.87;;;0.53;;
15258;SDS011;34462;51.368;12.364;2023-02-18T12:05:10;0.77;;;0.60;;
15258;SDS011;34462;51.368;12.364;2023-02-18T12:07:45;0.50;;;0.50;;
15258;SDS011;34462;51.368;12.364;2023-02-18T12:10:21;0.60;;;0.60;;
15258;SDS011;34462;51.368;12.364;2023-02-18T12:12:57;1.80;;;0.60;;
15258;SDS011;34462;51.368;12.364;2023-02-18T12:15:47;0.40;;;0.40;;
15258;SDS011;34462;51.368;12.364;2023-02-18T12:21:46;0.60;;;0.40;;
15258;SDS011;34462;51.368;12.364;2023-02-18T12:24:31;0.90;;;0.47;;
15258;SDS011;34462;51.368;12.364;2023-02-18T12:27:17;0.60;;;0.60;;
15258;SDS011;34462;51.368;12.364;2023-02-18T12:33:00;1.63;;;0.50;;
15258;SDS011;34462;51.368;12.364;2023-02-18T12:35:50;2.00;;;0.40;;
15258;SDS011;34462;51.368;12.364;2023-02-18T12:41:32;0.70;;;0.70;;
15258;SDS011;34462;51.368;12.364;2023-02-18T12:44:20;0.60;;;0.50;;
15258;SDS011;34462;51.368;12.364;2023-02-18T12:47:07;1.13;;;0.57;;
15258;SDS011;34462;51.368;12.364;2023-02-18T12:56:17;0.68;;;0.60;;
15258;SDS011;34462;51.368;12.364;2023-02-18T12:59:16;0.85;;;0.60;;
15258;SDS011;34462;51.368;12.364;2023-02-18T13:02:17;0.97;;;0.60;;
15258;SDS011;34462;51.368;12.364;2023-02-18T13:05:17;0.50;;;0.50;;
15258;SDS011;34462;51.368;12.364;2023-02-18T13:08:05;0.60;;;0.60;;
15258;SDS011;34462;51.368;12.364;2023-02-18T13:10:55;0.50;;;0.50;;
15258;SDS011;34462;51.368;12.364;2023-02-18T13:13:41;0.50;;;0.50;;
15258;SDS011;34462;51.368;12.364;2023-02-18T13:16:20;1.38;;;0.55;;
15258;SDS011;34462;51.368;12.364;2023-02-18T13:18:53;0.77;;;0.60;;
15258;SDS011;34462;51.368;12.364;2023-02-18T13:21:28;0.82;;;0.82;;
15258;SDS011;34462;51.368;12.364;2023-02-18T13:23:59;1.13;;;0.60;;
15258;SDS011;34462;51.368;12.364;2023-02-18T13:26:31;1.43;;;0.60;;
15258;SDS011;34462;51.368;12.364;2023-02-18T13:29:07;0.53;;;0.53;;
15258;SDS011;34462;51.368;12.364;2023-02-18T13:31:53;0.50;;;0.50;;
15258;SDS011;34462;51.368;12.364;2023-02-18T13:34:36;1.77;;;0.60;;
15258;SDS011;34462;51.368;12.364;2023-02-18T13:37:17;0.80;;;0.70;;
15258;SDS011;34462;51.368;12.364;2023-02-18T13:39:59;0.80;;;0.70;;
15258;SDS011;34462;51.368;12.364;2023-02-18T13:42:32;0.63;;;0.60;;
15258;SDS011;34462;51.368;12.364;2023-02-18T13:45:06;1.10;;;1.00;;
15258;SDS011;34462;51.368;12.364;2023-02-18T13:47:54;1.73;;;0.70;;
15258;SDS011;34462;51.368;12.364;2023-02-18T13:50:27;1.87;;;1.10;;
15258;SDS011;34462;51.368;12.364;2023-02-18T13:53:12;0.90;;;0.80;;
15258;SDS011;34462;51.368;12.364;2023-02-18T13:55:59;1.50;;;0.73;;
15258;SDS011;34462;51.368;12.364;2023-02-18T13:58:34;1.85;;;0.90;;
15258;SDS011;34462;51.368;12.364;2023-02-18T14:01:14;0.82;;;0.70;;
15258;SDS011;34462;51.368;12.364;2023-02-18T14:03:58;1.17;;;0.67;;
15258;SDS011;34462;51.368;12.364;2023-02-18T14:06:28;0.80;;;0.80;;
15258;SDS011;34462;51.368;12.364;2023-02-18T14:09:03;1.30;;;0.60;;
15258;SDS011;34462;51.368;12.364;2023-02-18T14:12:15;2.05;;;0.82;;
15258;SDS011;34462;51.368;12.364;2023-02-18T14:14:52;0.80;;;0.80;;
15258;SDS011;34462;51.368;12.364;2023-02-18T14:17:33;0.80;;;0.70;;
15258;SDS011;34462;51.368;12.364;2023-02-18T14:26:16;1.10;;;0.77;;
15258;SDS011;34462;51.368;12.364;2023-02-18T14:28:53;0.97;;;0.93;;
15258;SDS011;34462;51.368;12.364;2023-02-18T14:31:28;1.23;;;0.73;;
15258;SDS011;34462;51.368;12.364;2023-02-18T14:34:14;0.90;;;0.90;;
15258;SDS011;34462;51.368;12.364;2023-02-18T14:37:27;0.90;;;0.80;;
15258;SDS011;34462;51.368;12.364;2023-02-18T14:40:40;2.00;;;0.80;;
15258;SDS011;34462;51.368;12.364;2023-02-18T14:43:30;0.70;;;0.70;;
15258;SDS011;34462;51.368;12.364;2023-02-18T14:46:43;0.87;;;0.67;;
15258;SDS011;34462;51.368;12.364;2023-02-18T14:49:36;1.57;;;0.90;;
15258;SDS011;34462;51.368;12.364;2023-02-18T14:52:11;2.30;;;0.70;;
15258;SDS011;34462;51.368;12.364;2023-02-18T14:54:57;2.40;;;0.90;;
15258;SDS011;34462;51.368;12.364;2023-02-18T14:57:31;0.97;;;0.80;;
15258;SDS011;34462;51.368;12.364;2023-02-18T15:00:13;1.40;;;0.90;;
15258;SDS011;34462;51.368;12.364;2023-02-18T15:02:46;1.13;;;0.90;;
15258;SDS011;34462;51.368;12.364;2023-02-18T15:05:18;2.13;;;0.80;;
15258;SDS011;34462;51.368;12.364;2023-02-18T15:07:56;0.83;;;0.80;;
15258;SDS011;34462;51.368;12.364;2023-02-18T15:10:34;3.90;;;1.00;;
15258;SDS011;34462;51.368;12.364;2023-02-18T15:13:08;2.33;;;0.80;;
15258;SDS011;34462;51.368;12.364;2023-02-18T15:15:46;1.30;;;0.80;;
15258;SDS011;34462;51.368;12.364;2023-02-18T15:18:20;1.40;;;0.80;;
15258;SDS011;34462;51.368;12.364;2023-02-18T15:20:57;1.30;;;1.10;;
15258;SDS011;34462;51.368;12.364;2023-02-18T15:23:28;1.10;;;1.00;;
15258;SDS011;34462;51.368;12.364;2023-02-18T15:25:58;1.10;;;0.90;;
15258;SDS011;34462;51.368;12.364;2023-02-18T15:28:27;0.97;;;0.87;;
15258;SDS011;34462;51.368;12.364;2023-02-18T15:30:57;0.80;;;0.80;;
15258;SDS011;34462;51.368;12.364;2023-02-18T15:33:27;1.50;;;0.90;;
15258;SDS011;34462;51.368;12.364;2023-02-18T15:36:00;1.00;;;0.70;;
15258;SDS011;34462;51.368;12.364;2023-02-18T15:38:30;0.70;;;0.70;;
15258;SDS011;34462;51.368;12.364;2023-02-18T15:40:59;1.03;;;0.90;;